Nearby METAR Reports

 

KSJC - San Jose, California, USA
Distance from station: NE 14km
Dati ricevuti: 05/03/2024 09:53
Molto nuvoloso
Molto nuvoloso
 Vento da SE
Vento: SE 15 km/h
Temperatura: 11°C
P.to Rugiada: 6°C
Umidità: 72%
Barometro: 1019.3 hPa
Clouds: Molto nuvoloso
Visibility: 16 km
Cloud details: Molto nuvoloso 1829 m
2024/03/05 08:53 KSJC 050853Z AUTO 14008KT 10SM BKN060 11/06 A3010 RMK AO2 SLP192 T01060061 58002
KNUQ - Moffett Nas/Mtn, California, USA
Distance from station: N 14km
Dati ricevuti: 05/03/2024 10:15
Sereno
Sereno
 Vento da SE
Vento: SE 11 km/h
Temperatura: 9°C
Temperatura Vento: 7°C
P.to Rugiada: 6°C
Umidità: 82%
Barometro: 1019 hPa
Clouds: Sereno
Visibility: 16 km
2024/03/05 09:15 KNUQ 050915Z AUTO 14006KT 10SM CLR 09/06 A3009 RMK AO2
 
KPAO - Palo Alto, California, USA
Distance from station: NNO 23km
Dati ricevuti: 05/03/2024 05:47
NOT Current
Parz. nuvoloso
Parz. nuvoloso
 Vento da S
Vento: S 7 km/h
Temperatura: 11°C
P.to Rugiada: 7°C
Umidità: 77%
Barometro: 1019.6 hPa
Clouds: Parz. nuvoloso
Visibility: 16 km
Cloud details: Parz. nuvoloso 1829 m
2024/03/05 04:47 KPAO 050447Z 19004KT 10SM SCT060 11/07 A3011 RMK LAST
KRHV - San Jose/Reid, California, USA
Distance from station: ENE 19km
Dati ricevuti: 05/03/2024 06:55
NOT Current
Parz. nuvoloso
Parz. nuvoloso
 Vento da calm
Vento: Calma
Temperatura: 10°C
P.to Rugiada: 6°C
Umidità: 76%
Barometro: 1020 hPa
Clouds: Parz. nuvoloso
Visibility: 16 km
Cloud details: Parz. nuvoloso 1676 m
2024/03/05 05:55 KRHV 050555Z 00000KT 10SM SCT055 10/06 A3012 RMK LAST
 
KOAK - Oakland, California, USA
Distance from station: NNO 50km
Dati ricevuti: 05/03/2024 09:53
Coperto
Coperto
 Vento da SE
Vento: SE 9 km/h
Temperatura: 11°C
P.to Rugiada: 8°C
Umidità: 82%
Barometro: 1019.3 hPa
Clouds: Coperto
Visibility: 16 km
Cloud details: Molto nuvoloso 1128 m
Coperto 1676 m
2024/03/05 08:53 KOAK 050853Z 13005KT 10SM BKN037 OVC055 11/08 A3010 RMK AO2 SLP194 T01110078 58001
KSQL - San Carlos Airpo, California, USA
Distance from station: NO 34km
Dati ricevuti: 05/03/2024 10:15
Sereno
Sereno
 Vento da ESE
Vento: ESE 7 km/h
Temperatura: 10°C
Temperatura Vento: 9°C
P.to Rugiada: 7°C
Umidità: 82%
Barometro: 1019.3 hPa
Clouds: Sereno
Visibility: 16 km
2024/03/05 09:15 KSQL 050915Z AUTO 11004KT 10SM CLR 10/07 A3010 RMK AO2
 
KSFO - San Francisco, California, USA
Distance from station: NO 49km
Dati ricevuti: 05/03/2024 09:56
Molto nuvoloso
Molto nuvoloso
 Vento da SE
Vento: SE 15 km/h
Temperatura: 12°C
P.to Rugiada: 7°C
Umidità: 72%
Barometro: 1019 hPa
Clouds: Molto nuvoloso
Visibility: 16 km
Cloud details: Few Clouds 549 m
Molto nuvoloso 1829 m
2024/03/05 08:56 KSFO 050856Z 13008KT 10SM FEW018 BKN060 12/07 A3009 RMK AO2 SLP188 T01170072 58003 $
KE16 - San Martin, California, USA
Distance from station: ESE 43km
Dati ricevuti: 05/03/2024 10:15
Sereno
Sereno
 Vento da SSO
Vento: SSO 6 km/h
Temperatura: 6°C
P.to Rugiada: 6°C
Umidità: 100%
Barometro: 1020.7 hPa
Clouds: Sereno
Visibility: 16 km
2024/03/05 09:15 KE16 050915Z AUTO 21003KT 10SM CLR 06/06 A3014 RMK AO2 PWINO PNO
 
KWVI - Watsonville, California, USA
Distance from station: SSE 44km
Dati ricevuti: 05/03/2024 09:53
Coperto
Coperto
 Vento da calm
Vento: Calma
Temperatura: 7°C
P.to Rugiada: 6°C
Umidità: 93%
Barometro: 1020 hPa
Clouds: Coperto
Visibility: 16 km
Cloud details: Coperto 1433 m
2024/03/05 08:53 KWVI 050853Z AUTO 00000KT 10SM OVC047 07/06 A3012 RMK AO2 SLP200 T00670056 58001
KHAF - Half Moon Bay, California, USA
Distance from station: ONO 50km
Dati ricevuti: 05/03/2024 10:15
Coperto
Coperto
 Vento da SE
Vento: SE 15 km/h
Temperatura: 11°C
P.to Rugiada: 9°C
Umidità: 88%
Barometro: 1019 hPa
Clouds: Coperto
Visibility: 16 km
Cloud details: Molto nuvoloso 640 m
Molto nuvoloso 823 m
Coperto 945 m
2024/03/05 09:15 KHAF 050915Z AUTO 13008KT 10SM BKN021 BKN027 OVC031 11/09 A3009 RMK AO2
 
KHWD - Hayward, California, USA
Distance from station: N 44km
Dati ricevuti: 05/03/2024 09:54
Coperto
Coperto
 Vento da SE
Vento: SE 9 km/h
Temperatura: 12°C
P.to Rugiada: 7°C
Umidità: 72%
Barometro: 1019.3 hPa
Clouds: Coperto
Visibility: 16 km
Cloud details: Coperto 1219 m
2024/03/05 08:54 KHWD 050854Z AUTO 14005KT 10SM OVC040 12/07 A3010 RMK AO2 SLP201 T01170072 58001
KLVK - Livermore, California, USA
Distance from station: NNE 51km
Dati ricevuti: 05/03/2024 09:53
Coperto
Coperto
 Vento da E
Vento: E 6 km/h
Temperatura: 7°C
P.to Rugiada: 5°C
Umidità: 87%
Barometro: 1019 hPa
Clouds: Coperto
Visibility: 16 km
Cloud details: Coperto 1829 m
2024/03/05 08:53 KLVK 050853Z AUTO 08003KT 10SM OVC060 07/05 A3009 RMK AO2 SLPNO T00720050 58002